sensor_id;sensor_type;location;lat;lon;timestamp;temperature;humidity
37678;DHT22;23517;50.390;8.616;2023-12-20T00:02:10;5.70;1.00
37678;DHT22;23517;50.390;8.616;2023-12-20T00:04:36;5.80;1.00
37678;DHT22;23517;50.390;8.616;2023-12-20T00:07:03;5.80;1.00
37678;DHT22;23517;50.390;8.616;2023-12-20T00:09:30;5.80;1.00
37678;DHT22;23517;50.390;8.616;2023-12-20T00:11:57;5.80;1.00
37678;DHT22;23517;50.390;8.616;2023-12-20T00:14:23;5.80;1.00
37678;DHT22;23517;50.390;8.616;2023-12-20T00:16:50;5.80;1.00
37678;DHT22;23517;50.390;8.616;2023-12-20T00:19:17;5.80;1.00
37678;DHT22;23517;50.390;8.616;2023-12-20T00:21:44;5.70;1.00
37678;DHT22;23517;50.390;8.616;2023-12-20T00:24:10;5.70;1.00
37678;DHT22;23517;50.390;8.616;2023-12-20T00:26:37;5.70;1.00
37678;DHT22;23517;50.390;8.616;2023-12-20T00:29:04;5.70;1.00
37678;DHT22;23517;50.390;8.616;2023-12-20T00:31:30;5.70;1.00
37678;DHT22;23517;50.390;8.616;2023-12-20T00:33:57;5.70;1.00
37678;DHT22;23517;50.390;8.616;2023-12-20T00:36:24;5.70;1.00
37678;DHT22;23517;50.390;8.616;2023-12-20T00:38:51;5.70;1.00
37678;DHT22;23517;50.390;8.616;2023-12-20T00:41:18;5.70;1.00
37678;DHT22;23517;50.390;8.616;2023-12-20T00:43:44;5.80;1.00
37678;DHT22;23517;50.390;8.616;2023-12-20T00:46:11;5.80;1.00
37678;DHT22;23517;50.390;8.616;2023-12-20T00:48:38;5.80;1.00
37678;DHT22;23517;50.390;8.616;2023-12-20T00:51:06;5.80;1.00
37678;DHT22;23517;50.390;8.616;2023-12-20T00:53:32;5.70;1.00
37678;DHT22;23517;50.390;8.616;2023-12-20T00:55:59;5.70;1.00
37678;DHT22;23517;50.390;8.616;2023-12-20T00:58:26;5.70;1.00
37678;DHT22;23517;50.390;8.616;2023-12-20T01:00:54;5.70;1.00
37678;DHT22;23517;50.390;8.616;2023-12-20T01:03:21;5.70;1.00
37678;DHT22;23517;50.390;8.616;2023-12-20T01:05:47;5.70;1.00
37678;DHT22;23517;50.390;8.616;2023-12-20T01:08:14;5.70;1.00
37678;DHT22;23517;50.390;8.616;2023-12-20T01:10:41;5.70;1.00
37678;DHT22;23517;50.390;8.616;2023-12-20T01:13:07;5.70;1.00
37678;DHT22;23517;50.390;8.616;2023-12-20T01:15:35;5.70;1.00
37678;DHT22;23517;50.390;8.616;2023-12-20T01:18:02;5.70;1.00
37678;DHT22;23517;50.390;8.616;2023-12-20T01:20:29;5.60;1.00
37678;DHT22;23517;50.390;8.616;2023-12-20T01:22:55;5.60;1.00
37678;DHT22;23517;50.390;8.616;2023-12-20T01:25:22;5.60;1.00
37678;DHT22;23517;50.390;8.616;2023-12-20T01:27:49;5.60;1.00
37678;DHT22;23517;50.390;8.616;2023-12-20T01:30:16;5.60;1.00
37678;DHT22;23517;50.390;8.616;2023-12-20T01:32:43;5.60;1.00
37678;DHT22;23517;50.390;8.616;2023-12-20T01:35:10;5.60;1.00
37678;DHT22;23517;50.390;8.616;2023-12-20T01:37:38;5.60;1.00
37678;DHT22;23517;50.390;8.616;2023-12-20T01:40:05;5.60;1.00
37678;DHT22;23517;50.390;8.616;2023-12-20T01:42:32;5.60;1.00
37678;DHT22;23517;50.390;8.616;2023-12-20T01:44:59;5.60;1.00
37678;DHT22;23517;50.390;8.616;2023-12-20T01:47:26;5.50;1.00
37678;DHT22;23517;50.390;8.616;2023-12-20T01:49:53;5.60;1.00
37678;DHT22;23517;50.390;8.616;2023-12-20T01:52:20;5.60;1.00
37678;DHT22;23517;50.390;8.616;2023-12-20T01:54:47;5.60;1.00
37678;DHT22;23517;50.390;8.616;2023-12-20T01:57:15;5.60;1.00
37678;DHT22;23517;50.390;8.616;2023-12-20T01:59:42;5.60;1.00
37678;DHT22;23517;50.390;8.616;2023-12-20T02:02:09;5.60;1.00
37678;DHT22;23517;50.390;8.616;2023-12-20T02:04:36;5.60;1.00
37678;DHT22;23517;50.390;8.616;2023-12-20T02:07:03;5.70;1.00
37678;DHT22;23517;50.390;8.616;2023-12-20T02:09:30;5.70;1.00
37678;DHT22;23517;50.390;8.616;2023-12-20T02:11:59;5.60;1.00
37678;DHT22;23517;50.390;8.616;2023-12-20T02:14:25;5.60;1.00
37678;DHT22;23517;50.390;8.616;2023-12-20T02:16:52;5.60;1.00
37678;DHT22;23517;50.390;8.616;2023-12-20T02:19:20;5.60;1.00
37678;DHT22;23517;50.390;8.616;2023-12-20T02:21:47;5.60;1.00
37678;DHT22;23517;50.390;8.616;2023-12-20T02:24:13;5.60;1.00
37678;DHT22;23517;50.390;8.616;2023-12-20T02:26:40;5.60;1.00
37678;DHT22;23517;50.390;8.616;2023-12-20T02:29:11;5.60;1.00
37678;DHT22;23517;50.390;8.616;2023-12-20T02:31:40;5.60;1.00
37678;DHT22;23517;50.390;8.616;2023-12-20T02:34:07;5.60;1.00
37678;DHT22;23517;50.390;8.616;2023-12-20T02:36:33;5.60;1.00
37678;DHT22;23517;50.390;8.616;2023-12-20T02:39:00;5.60;1.00
37678;DHT22;23517;50.390;8.616;2023-12-20T02:41:26;5.60;1.00
37678;DHT22;23517;50.390;8.616;2023-12-20T02:43:53;5.70;1.00
37678;DHT22;23517;50.390;8.616;2023-12-20T02:46:20;5.60;1.00
37678;DHT22;23517;50.390;8.616;2023-12-20T02:48:46;5.60;1.00
37678;DHT22;23517;50.390;8.616;2023-12-20T02:51:14;5.60;1.00
37678;DHT22;23517;50.390;8.616;2023-12-20T02:53:40;5.60;1.00
37678;DHT22;23517;50.390;8.616;2023-12-20T02:56:07;5.60;1.00
37678;DHT22;23517;50.390;8.616;2023-12-20T02:58:33;5.60;1.00
37678;DHT22;23517;50.390;8.616;2023-12-20T03:01:00;5.60;1.00
37678;DHT22;23517;50.390;8.616;2023-12-20T03:03:27;5.60;1.00
37678;DHT22;23517;50.390;8.616;2023-12-20T03:05:54;5.70;1.00
37678;DHT22;23517;50.390;8.616;2023-12-20T03:08:20;5.70;1.00
37678;DHT22;23517;50.390;8.616;2023-12-20T03:10:47;5.70;1.00
37678;DHT22;23517;50.390;8.616;2023-12-20T03:13:14;5.80;1.00
37678;DHT22;23517;50.390;8.616;2023-12-20T03:15:41;5.80;1.00
37678;DHT22;23517;50.390;8.616;2023-12-20T03:18:07;5.80;1.00
37678;DHT22;23517;50.390;8.616;2023-12-20T03:20:34;5.80;1.00
37678;DHT22;23517;50.390;8.616;2023-12-20T03:23:01;5.90;1.00
37678;DHT22;23517;50.390;8.616;2023-12-20T03:25:28;5.90;1.00
37678;DHT22;23517;50.390;8.616;2023-12-20T03:27:54;5.90;1.00
37678;DHT22;23517;50.390;8.616;2023-12-20T03:30:21;5.80;1.00
37678;DHT22;23517;50.390;8.616;2023-12-20T03:32:48;5.90;1.00
37678;DHT22;23517;50.390;8.616;2023-12-20T03:35:15;5.90;1.00
37678;DHT22;23517;50.390;8.616;2023-12-20T03:37:41;5.90;1.00
37678;DHT22;23517;50.390;8.616;2023-12-20T03:40:09;5.90;1.00
37678;DHT22;23517;50.390;8.616;2023-12-20T03:42:36;5.90;1.00
37678;DHT22;23517;50.390;8.616;2023-12-20T03:45:03;5.90;1.00
37678;DHT22;23517;50.390;8.616;2023-12-20T03:47:30;5.90;1.00
37678;DHT22;23517;50.390;8.616;2023-12-20T03:49:57;5.90;1.00
37678;DHT22;23517;50.390;8.616;2023-12-20T03:52:24;5.90;1.00
37678;DHT22;23517;50.390;8.616;2023-12-20T03:54:51;5.90;1.00
37678;DHT22;23517;50.390;8.616;2023-12-20T03:57:18;5.80;1.00
37678;DHT22;23517;50.390;8.616;2023-12-20T03:59:44;5.80;1.00
37678;DHT22;23517;50.390;8.616;2023-12-20T04:02:11;5.80;1.00
37678;DHT22;23517;50.390;8.616;2023-12-20T04:04:38;5.80;1.00
37678;DHT22;23517;50.390;8.616;2023-12-20T04:07:04;5.70;1.00
37678;DHT22;23517;50.390;8.616;2023-12-20T04:09:31;5.70;1.00
37678;DHT22;23517;50.390;8.616;2023-12-20T04:11:58;5.70;1.00
37678;DHT22;23517;50.390;8.616;2023-12-20T04:14:24;5.70;1.00
37678;DHT22;23517;50.390;8.616;2023-12-20T04:16:52;5.70;1.00
37678;DHT22;23517;50.390;8.616;2023-12-20T04:19:19;5.60;1.00
37678;DHT22;23517;50.390;8.616;2023-12-20T04:21:46;5.70;1.00
37678;DHT22;23517;50.390;8.616;2023-12-20T04:24:12;5.70;1.00
37678;DHT22;23517;50.390;8.616;2023-12-20T04:26:39;5.70;1.00
37678;DHT22;23517;50.390;8.616;2023-12-20T04:29:05;5.70;1.00
37678;DHT22;23517;50.390;8.616;2023-12-20T04:31:32;5.60;1.00
37678;DHT22;23517;50.390;8.616;2023-12-20T04:33:59;5.60;1.00
37678;DHT22;23517;50.390;8.616;2023-12-20T04:36:26;5.70;1.00
37678;DHT22;23517;50.390;8.616;2023-12-20T04:38:53;5.70;1.00
37678;DHT22;23517;50.390;8.616;2023-12-20T04:41:20;5.70;1.00
37678;DHT22;23517;50.390;8.616;2023-12-20T04:43:46;5.70;1.00
37678;DHT22;23517;50.390;8.616;2023-12-20T04:46:13;5.80;1.00
37678;DHT22;23517;50.390;8.616;2023-12-20T04:48:40;5.70;99.90
37678;DHT22;23517;50.390;8.616;2023-12-20T04:51:07;5.80;99.90
37678;DHT22;23517;50.390;8.616;2023-12-20T04:53:33;5.80;99.90
37678;DHT22;23517;50.390;8.616;2023-12-20T04:56:00;5.70;99.90
37678;DHT22;23517;50.390;8.616;2023-12-20T04:58:26;5.70;99.90
37678;DHT22;23517;50.390;8.616;2023-12-20T05:00:53;5.60;99.90
37678;DHT22;23517;50.390;8.616;2023-12-20T05:03:20;5.50;99.90
37678;DHT22;23517;50.390;8.616;2023-12-20T05:05:47;5.40;99.90
37678;DHT22;23517;50.390;8.616;2023-12-20T05:08:14;5.30;10.40
37678;DHT22;23517;50.390;8.616;2023-12-20T05:10:42;5.30;35.90
37678;DHT22;23517;50.390;8.616;2023-12-20T05:13:08;5.20;99.90
37678;DHT22;23517;50.390;8.616;2023-12-20T05:15:35;5.10;99.90
37678;DHT22;23517;50.390;8.616;2023-12-20T05:18:02;5.00;99.90
37678;DHT22;23517;50.390;8.616;2023-12-20T05:20:29;5.10;1.00
37678;DHT22;23517;50.390;8.616;2023-12-20T05:22:55;5.00;5.10
37678;DHT22;23517;50.390;8.616;2023-12-20T05:25:22;5.00;99.90
37678;DHT22;23517;50.390;8.616;2023-12-20T05:27:49;5.00;28.40
37678;DHT22;23517;50.390;8.616;2023-12-20T05:30:16;4.90;41.20
37678;DHT22;23517;50.390;8.616;2023-12-20T05:32:42;4.90;24.50
37678;DHT22;23517;50.390;8.616;2023-12-20T05:35:10;4.80;1.00
37678;DHT22;23517;50.390;8.616;2023-12-20T05:37:37;4.70;6.40
37678;DHT22;23517;50.390;8.616;2023-12-20T05:40:04;4.80;96.00
37678;DHT22;23517;50.390;8.616;2023-12-20T05:42:32;4.80;99.90
37678;DHT22;23517;50.390;8.616;2023-12-20T05:44:59;4.80;99.90
37678;DHT22;23517;50.390;8.616;2023-12-20T05:47:25;4.90;99.90
37678;DHT22;23517;50.390;8.616;2023-12-20T05:49:52;4.90;99.90
37678;DHT22;23517;50.390;8.616;2023-12-20T05:52:19;4.80;99.90
37678;DHT22;23517;50.390;8.616;2023-12-20T05:54:46;4.80;99.90
37678;DHT22;23517;50.390;8.616;2023-12-20T05:57:13;4.80;99.90
37678;DHT22;23517;50.390;8.616;2023-12-20T05:59:39;4.80;99.90
37678;DHT22;23517;50.390;8.616;2023-12-20T06:02:06;4.80;99.90
37678;DHT22;23517;50.390;8.616;2023-12-20T06:04:33;4.70;99.90
37678;DHT22;23517;50.390;8.616;2023-12-20T06:07:00;4.60;99.90
37678;DHT22;23517;50.390;8.616;2023-12-20T06:09:27;4.60;99.90
37678;DHT22;23517;50.390;8.616;2023-12-20T06:11:57;4.60;99.90
37678;DHT22;23517;50.390;8.616;2023-12-20T06:14:24;4.60;99.90
37678;DHT22;23517;50.390;8.616;2023-12-20T06:16:51;4.60;99.90
37678;DHT22;23517;50.390;8.616;2023-12-20T06:19:17;4.60;99.90
37678;DHT22;23517;50.390;8.616;2023-12-20T06:21:44;4.50;99.90
37678;DHT22;23517;50.390;8.616;2023-12-20T06:24:11;4.40;99.90
37678;DHT22;23517;50.390;8.616;2023-12-20T06:26:38;4.40;99.90
37678;DHT22;23517;50.390;8.616;2023-12-20T06:29:05;4.40;99.90
37678;DHT22;23517;50.390;8.616;2023-12-20T06:31:32;4.40;99.90
37678;DHT22;23517;50.390;8.616;2023-12-20T06:34:00;4.40;99.90
37678;DHT22;23517;50.390;8.616;2023-12-20T06:36:27;4.50;99.90
37678;DHT22;23517;50.390;8.616;2023-12-20T06:38:54;4.60;99.90
37678;DHT22;23517;50.390;8.616;2023-12-20T06:41:21;4.50;99.90
37678;DHT22;23517;50.390;8.616;2023-12-20T06:43:48;4.40;99.90
37678;DHT22;23517;50.390;8.616;2023-12-20T06:46:16;4.30;99.90
37678;DHT22;23517;50.390;8.616;2023-12-20T06:48:44;4.30;1.00
37678;DHT22;23517;50.390;8.616;2023-12-20T06:51:14;4.40;1.00
37678;DHT22;23517;50.390;8.616;2023-12-20T06:53:42;4.30;1.00
37678;DHT22;23517;50.390;8.616;2023-12-20T06:56:10;4.40;1.00
37678;DHT22;23517;50.390;8.616;2023-12-20T06:58:39;4.50;1.00
37678;DHT22;23517;50.390;8.616;2023-12-20T07:01:14;4.50;1.00
37678;DHT22;23517;50.390;8.616;2023-12-20T07:03:42;4.60;1.00
37678;DHT22;23517;50.390;8.616;2023-12-20T07:06:09;4.70;99.90
37678;DHT22;23517;50.390;8.616;2023-12-20T07:08:36;4.60;99.90
37678;DHT22;23517;50.390;8.616;2023-12-20T07:11:03;4.60;99.90
37678;DHT22;23517;50.390;8.616;2023-12-20T07:13:30;4.50;99.90
37678;DHT22;23517;50.390;8.616;2023-12-20T07:15:57;4.50;99.90
37678;DHT22;23517;50.390;8.616;2023-12-20T07:18:23;4.50;99.90
37678;DHT22;23517;50.390;8.616;2023-12-20T07:20:50;4.50;99.90
37678;DHT22;23517;50.390;8.616;2023-12-20T07:23:17;4.40;99.90
37678;DHT22;23517;50.390;8.616;2023-12-20T07:25:43;4.40;99.90
37678;DHT22;23517;50.390;8.616;2023-12-20T07:28:10;4.30;1.00
37678;DHT22;23517;50.390;8.616;2023-12-20T07:30:37;4.40;1.00
37678;DHT22;23517;50.390;8.616;2023-12-20T07:33:04;4.50;99.90
37678;DHT22;23517;50.390;8.616;2023-12-20T07:35:31;4.50;99.90
37678;DHT22;23517;50.390;8.616;2023-12-20T07:37:58;4.60;99.90
37678;DHT22;23517;50.390;8.616;2023-12-20T07:40:25;4.50;99.90
37678;DHT22;23517;50.390;8.616;2023-12-20T07:42:51;4.60;99.90
37678;DHT22;23517;50.390;8.616;2023-12-20T07:45:18;4.60;99.90
37678;DHT22;23517;50.390;8.616;2023-12-20T07:47:45;4.60;99.90
37678;DHT22;23517;50.390;8.616;2023-12-20T07:50:12;4.50;99.90
37678;DHT22;23517;50.390;8.616;2023-12-20T07:52:40;4.60;1.00
37678;DHT22;23517;50.390;8.616;2023-12-20T07:55:07;4.60;99.90
37678;DHT22;23517;50.390;8.616;2023-12-20T07:57:34;4.70;99.90
37678;DHT22;23517;50.390;8.616;2023-12-20T08:00:00;4.70;99.90
37678;DHT22;23517;50.390;8.616;2023-12-20T08:02:27;4.70;99.90
37678;DHT22;23517;50.390;8.616;2023-12-20T08:04:54;4.80;99.90
37678;DHT22;23517;50.390;8.616;2023-12-20T08:07:20;4.80;99.90
37678;DHT22;23517;50.390;8.616;2023-12-20T08:09:47;4.90;99.90
37678;DHT22;23517;50.390;8.616;2023-12-20T08:12:14;4.90;99.90
37678;DHT22;23517;50.390;8.616;2023-12-20T08:14:42;4.90;99.90
37678;DHT22;23517;50.390;8.616;2023-12-20T08:17:08;4.90;99.90
37678;DHT22;23517;50.390;8.616;2023-12-20T08:19:35;4.90;99.90
37678;DHT22;23517;50.390;8.616;2023-12-20T08:22:02;4.90;99.90
37678;DHT22;23517;50.390;8.616;2023-12-20T08:24:29;5.00;99.90
37678;DHT22;23517;50.390;8.616;2023-12-20T08:26:56;5.00;99.90
37678;DHT22;23517;50.390;8.616;2023-12-20T08:29:23;5.00;99.90
37678;DHT22;23517;50.390;8.616;2023-12-20T08:31:53;5.00;99.90
37678;DHT22;23517;50.390;8.616;2023-12-20T08:34:23;5.10;99.90
37678;DHT22;23517;50.390;8.616;2023-12-20T08:36:50;5.20;99.90
37678;DHT22;23517;50.390;8.616;2023-12-20T08:39:20;5.20;99.90
37678;DHT22;23517;50.390;8.616;2023-12-20T08:41:47;5.30;99.90
37678;DHT22;23517;50.390;8.616;2023-12-20T08:44:14;5.30;99.90
37678;DHT22;23517;50.390;8.616;2023-12-20T08:46:40;5.40;21.30
37678;DHT22;23517;50.390;8.616;2023-12-20T08:49:07;5.40;1.00
37678;DHT22;23517;50.390;8.616;2023-12-20T08:51:35;5.40;1.00
37678;DHT22;23517;50.390;8.616;2023-12-20T08:54:02;5.40;1.00
37678;DHT22;23517;50.390;8.616;2023-12-20T08:56:31;5.40;1.00
37678;DHT22;23517;50.390;8.616;2023-12-20T08:58:57;5.50;1.00
37678;DHT22;23517;50.390;8.616;2023-12-20T09:01:24;5.60;1.00
37678;DHT22;23517;50.390;8.616;2023-12-20T09:03:51;5.50;1.00
37678;DHT22;23517;50.390;8.616;2023-12-20T09:06:17;5.60;1.00
37678;DHT22;23517;50.390;8.616;2023-12-20T09:08:44;5.60;1.00
37678;DHT22;23517;50.390;8.616;2023-12-20T09:11:11;5.70;1.00
37678;DHT22;23517;50.390;8.616;2023-12-20T09:13:38;5.70;1.00
37678;DHT22;23517;50.390;8.616;2023-12-20T09:16:05;5.70;1.00
37678;DHT22;23517;50.390;8.616;2023-12-20T09:18:32;5.80;1.00
37678;DHT22;23517;50.390;8.616;2023-12-20T09:21:03;5.80;99.90
37678;DHT22;23517;50.390;8.616;2023-12-20T09:23:29;5.80;99.90
37678;DHT22;23517;50.390;8.616;2023-12-20T09:25:56;5.80;1.00
37678;DHT22;23517;50.390;8.616;2023-12-20T09:28:24;5.80;99.90
37678;DHT22;23517;50.390;8.616;2023-12-20T09:30:50;5.80;99.90
37678;DHT22;23517;50.390;8.616;2023-12-20T09:33:17;5.80;99.90
37678;DHT22;23517;50.390;8.616;2023-12-20T09:35:44;5.90;99.90
37678;DHT22;23517;50.390;8.616;2023-12-20T09:38:11;6.00;99.90
37678;DHT22;23517;50.390;8.616;2023-12-20T09:40:41;6.00;99.90
37678;DHT22;23517;50.390;8.616;2023-12-20T09:43:11;6.00;99.90
37678;DHT22;23517;50.390;8.616;2023-12-20T09:45:41;6.10;99.90
37678;DHT22;23517;50.390;8.616;2023-12-20T09:48:12;6.10;1.00
37678;DHT22;23517;50.390;8.616;2023-12-20T09:50:41;6.10;1.00
37678;DHT22;23517;50.390;8.616;2023-12-20T09:53:14;6.20;1.00
37678;DHT22;23517;50.390;8.616;2023-12-20T09:55:42;6.20;1.00
37678;DHT22;23517;50.390;8.616;2023-12-20T09:58:08;6.20;47.30
37678;DHT22;23517;50.390;8.616;2023-12-20T10:00:37;6.20;99.70
37678;DHT22;23517;50.390;8.616;2023-12-20T10:03:06;6.30;1.00
37678;DHT22;23517;50.390;8.616;2023-12-20T10:05:34;6.40;1.00
37678;DHT22;23517;50.390;8.616;2023-12-20T10:08:01;6.40;1.00
37678;DHT22;23517;50.390;8.616;2023-12-20T10:10:30;6.50;1.00
37678;DHT22;23517;50.390;8.616;2023-12-20T10:13:12;6.60;99.90
37678;DHT22;23517;50.390;8.616;2023-12-20T10:15:40;6.50;99.90
37678;DHT22;23517;50.390;8.616;2023-12-20T10:18:08;6.60;99.90
37678;DHT22;23517;50.390;8.616;2023-12-20T10:20:35;6.80;99.90
37678;DHT22;23517;50.390;8.616;2023-12-20T10:23:02;6.70;99.90
37678;DHT22;23517;50.390;8.616;2023-12-20T10:25:29;6.70;99.90
37678;DHT22;23517;50.390;8.616;2023-12-20T10:28:14;6.80;87.80
37678;DHT22;23517;50.390;8.616;2023-12-20T10:30:43;6.80;99.90
37678;DHT22;23517;50.390;8.616;2023-12-20T10:33:10;6.90;99.90
37678;DHT22;23517;50.390;8.616;2023-12-20T10:35:39;7.00;86.90
37678;DHT22;23517;50.390;8.616;2023-12-20T10:38:12;7.10;99.90
37678;DHT22;23517;50.390;8.616;2023-12-20T10:40:40;7.20;1.00
37678;DHT22;23517;50.390;8.616;2023-12-20T10:43:08;7.30;1.00
37678;DHT22;23517;50.390;8.616;2023-12-20T10:45:35;7.40;1.00
37678;DHT22;23517;50.390;8.616;2023-12-20T10:48:03;7.40;99.90
37678;DHT22;23517;50.390;8.616;2023-12-20T10:50:31;7.30;1.00
37678;DHT22;23517;50.390;8.616;2023-12-20T10:52:58;7.30;99.90
37678;DHT22;23517;50.390;8.616;2023-12-20T10:55:25;7.20;99.90
37678;DHT22;23517;50.390;8.616;2023-12-20T10:58:01;7.10;99.90
37678;DHT22;23517;50.390;8.616;2023-12-20T11:00:29;7.10;99.90
37678;DHT22;23517;50.390;8.616;2023-12-20T11:03:00;7.00;99.90
37678;DHT22;23517;50.390;8.616;2023-12-20T11:05:42;7.00;99.90
37678;DHT22;23517;50.390;8.616;2023-12-20T11:08:25;7.00;99.90
37678;DHT22;23517;50.390;8.616;2023-12-20T11:11:12;7.00;99.90
37678;DHT22;23517;50.390;8.616;2023-12-20T11:14:02;7.00;99.90
37678;DHT22;23517;50.390;8.616;2023-12-20T11:16:37;6.90;99.90
37678;DHT22;23517;50.390;8.616;2023-12-20T11:19:17;6.90;99.90
37678;DHT22;23517;50.390;8.616;2023-12-20T11:21:46;6.90;99.90
37678;DHT22;23517;50.390;8.616;2023-12-20T11:24:13;6.90;99.90
37678;DHT22;23517;50.390;8.616;2023-12-20T11:26:47;6.80;99.90
37678;DHT22;23517;50.390;8.616;2023-12-20T11:29:35;6.70;99.90
37678;DHT22;23517;50.390;8.616;2023-12-20T11:32:03;6.60;99.90
37678;DHT22;23517;50.390;8.616;2023-12-20T11:34:32;6.60;99.90
37678;DHT22;23517;50.390;8.616;2023-12-20T11:37:02;6.50;99.90
37678;DHT22;23517;50.390;8.616;2023-12-20T11:39:30;6.50;99.90
37678;DHT22;23517;50.390;8.616;2023-12-20T11:41:57;6.50;99.90
37678;DHT22;23517;50.390;8.616;2023-12-20T11:44:30;6.40;99.90
37678;DHT22;23517;50.390;8.616;2023-12-20T11:46:57;6.40;99.90
37678;DHT22;23517;50.390;8.616;2023-12-20T11:49:24;6.30;99.90
37678;DHT22;23517;50.390;8.616;2023-12-20T11:51:51;6.40;1.00
37678;DHT22;23517;50.390;8.616;2023-12-20T11:54:18;6.40;1.00
37678;DHT22;23517;50.390;8.616;2023-12-20T11:56:46;6.40;1.00
37678;DHT22;23517;50.390;8.616;2023-12-20T11:59:13;6.30;1.00
37678;DHT22;23517;50.390;8.616;2023-12-20T12:01:50;6.40;1.00
37678;DHT22;23517;50.390;8.616;2023-12-20T12:04:19;6.30;1.00
37678;DHT22;23517;50.390;8.616;2023-12-20T12:06:46;6.40;1.00
37678;DHT22;23517;50.390;8.616;2023-12-20T12:09:13;6.40;1.00
37678;DHT22;23517;50.390;8.616;2023-12-20T12:11:40;6.30;1.00
37678;DHT22;23517;50.390;8.616;2023-12-20T12:14:07;6.30;1.00
37678;DHT22;23517;50.390;8.616;2023-12-20T12:16:34;6.30;1.00
37678;DHT22;23517;50.390;8.616;2023-12-20T12:19:01;6.40;1.00
37678;DHT22;23517;50.390;8.616;2023-12-20T12:21:28;6.30;1.00
37678;DHT22;23517;50.390;8.616;2023-12-20T12:24:10;6.20;1.00
37678;DHT22;23517;50.390;8.616;2023-12-20T12:26:37;6.20;1.00
37678;DHT22;23517;50.390;8.616;2023-12-20T12:29:07;6.20;1.00
37678;DHT22;23517;50.390;8.616;2023-12-20T12:31:34;6.20;1.00
37678;DHT22;23517;50.390;8.616;2023-12-20T12:34:01;6.20;1.00
37678;DHT22;23517;50.390;8.616;2023-12-20T12:36:29;6.20;1.00
37678;DHT22;23517;50.390;8.616;2023-12-20T12:38:57;6.20;1.00
37678;DHT22;23517;50.390;8.616;2023-12-20T12:41:24;6.20;15.20
37678;DHT22;23517;50.390;8.616;2023-12-20T12:43:51;6.20;50.60
37678;DHT22;23517;50.390;8.616;2023-12-20T12:46:18;6.20;99.90
37678;DHT22;23517;50.390;8.616;2023-12-20T12:48:45;6.20;81.70
37678;DHT22;23517;50.390;8.616;2023-12-20T12:51:13;6.20;99.90
37678;DHT22;23517;50.390;8.616;2023-12-20T12:53:40;6.20;99.90
37678;DHT22;23517;50.390;8.616;2023-12-20T12:56:07;6.30;99.90
37678;DHT22;23517;50.390;8.616;2023-12-20T12:58:34;6.20;99.90
37678;DHT22;23517;50.390;8.616;2023-12-20T13:01:01;6.30;99.90
37678;DHT22;23517;50.390;8.616;2023-12-20T13:03:30;6.30;99.90
37678;DHT22;23517;50.390;8.616;2023-12-20T13:05:57;6.40;99.90
37678;DHT22;23517;50.390;8.616;2023-12-20T13:08:24;6.50;99.90
37678;DHT22;23517;50.390;8.616;2023-12-20T13:10:50;6.50;99.90
37678;DHT22;23517;50.390;8.616;2023-12-20T13:13:17;6.50;99.90
37678;DHT22;23517;50.390;8.616;2023-12-20T13:15:44;6.50;99.90
37678;DHT22;23517;50.390;8.616;2023-12-20T13:18:18;6.50;99.90
37678;DHT22;23517;50.390;8.616;2023-12-20T13:20:45;6.50;99.90
37678;DHT22;23517;50.390;8.616;2023-12-20T13:23:12;6.40;99.90
37678;DHT22;23517;50.390;8.616;2023-12-20T13:25:40;6.30;99.90
37678;DHT22;23517;50.390;8.616;2023-12-20T13:28:08;6.20;99.90
37678;DHT22;23517;50.390;8.616;2023-12-20T13:30:35;6.20;1.00
37678;DHT22;23517;50.390;8.616;2023-12-20T13:33:03;6.30;1.00
37678;DHT22;23517;50.390;8.616;2023-12-20T13:35:29;6.30;1.00
37678;DHT22;23517;50.390;8.616;2023-12-20T13:37:57;6.20;30.60
37678;DHT22;23517;50.390;8.616;2023-12-20T13:40:24;6.20;99.90
37678;DHT22;23517;50.390;8.616;2023-12-20T13:42:51;6.20;99.90
37678;DHT22;23517;50.390;8.616;2023-12-20T13:45:18;6.30;99.90
37678;DHT22;23517;50.390;8.616;2023-12-20T13:47:44;6.30;99.90
37678;DHT22;23517;50.390;8.616;2023-12-20T13:50:11;6.30;1.00
37678;DHT22;23517;50.390;8.616;2023-12-20T13:52:39;6.30;99.90
37678;DHT22;23517;50.390;8.616;2023-12-20T13:55:06;6.20;99.90
37678;DHT22;23517;50.390;8.616;2023-12-20T13:57:34;6.30;99.90
37678;DHT22;23517;50.390;8.616;2023-12-20T14:00:09;6.30;86.70
37678;DHT22;23517;50.390;8.616;2023-12-20T14:02:41;6.30;99.90
37678;DHT22;23517;50.390;8.616;2023-12-20T14:05:09;6.30;99.90
37678;DHT22;23517;50.390;8.616;2023-12-20T14:07:41;6.30;99.90
37678;DHT22;23517;50.390;8.616;2023-12-20T14:10:15;6.30;99.90
37678;DHT22;23517;50.390;8.616;2023-12-20T14:12:42;6.20;99.90
37678;DHT22;23517;50.390;8.616;2023-12-20T14:15:11;6.30;1.00
37678;DHT22;23517;50.390;8.616;2023-12-20T14:17:40;6.30;1.00
37678;DHT22;23517;50.390;8.616;2023-12-20T14:20:08;6.30;1.00
37678;DHT22;23517;50.390;8.616;2023-12-20T14:22:36;6.30;1.60
37678;DHT22;23517;50.390;8.616;2023-12-20T14:25:05;6.30;99.90
37678;DHT22;23517;50.390;8.616;2023-12-20T14:27:32;6.40;1.00
37678;DHT22;23517;50.390;8.616;2023-12-20T14:29:59;6.40;1.00
37678;DHT22;23517;50.390;8.616;2023-12-20T14:32:27;6.40;10.90
37678;DHT22;23517;50.390;8.616;2023-12-20T14:34:54;6.40;1.00
37678;DHT22;23517;50.390;8.616;2023-12-20T14:37:21;6.40;1.00
37678;DHT22;23517;50.390;8.616;2023-12-20T14:39:48;6.50;1.00
37678;DHT22;23517;50.390;8.616;2023-12-20T14:42:15;6.50;1.00
37678;DHT22;23517;50.390;8.616;2023-12-20T14:44:43;6.40;1.00
37678;DHT22;23517;50.390;8.616;2023-12-20T14:47:10;6.50;1.00
37678;DHT22;23517;50.390;8.616;2023-12-20T14:49:36;6.50;1.00
37678;DHT22;23517;50.390;8.616;2023-12-20T14:52:04;6.40;1.00
37678;DHT22;23517;50.390;8.616;2023-12-20T14:54:31;6.40;1.00
37678;DHT22;23517;50.390;8.616;2023-12-20T14:56:59;6.40;1.00
37678;DHT22;23517;50.390;8.616;2023-12-20T14:59:31;6.40;1.00
37678;DHT22;23517;50.390;8.616;2023-12-20T15:01:58;6.40;1.00
37678;DHT22;23517;50.390;8.616;2023-12-20T15:04:25;6.40;1.00
37678;DHT22;23517;50.390;8.616;2023-12-20T15:06:55;6.30;1.00
37678;DHT22;23517;50.390;8.616;2023-12-20T15:09:22;6.30;1.00
37678;DHT22;23517;50.390;8.616;2023-12-20T15:11:49;6.30;1.00
37678;DHT22;23517;50.390;8.616;2023-12-20T15:14:15;6.30;1.00
37678;DHT22;23517;50.390;8.616;2023-12-20T15:16:46;6.30;1.00
37678;DHT22;23517;50.390;8.616;2023-12-20T15:19:14;6.20;1.00
37678;DHT22;23517;50.390;8.616;2023-12-20T15:21:41;6.20;1.00
37678;DHT22;23517;50.390;8.616;2023-12-20T15:24:13;6.20;1.00
37678;DHT22;23517;50.390;8.616;2023-12-20T15:26:46;6.20;1.00
37678;DHT22;23517;50.390;8.616;2023-12-20T15:29:13;6.20;1.00
37678;DHT22;23517;50.390;8.616;2023-12-20T15:31:46;6.20;1.00
37678;DHT22;23517;50.390;8.616;2023-12-20T15:34:13;6.20;99.90
37678;DHT22;23517;50.390;8.616;2023-12-20T15:36:42;6.20;78.90
37678;DHT22;23517;50.390;8.616;2023-12-20T15:39:09;6.20;69.30
37678;DHT22;23517;50.390;8.616;2023-12-20T15:41:36;6.20;99.90
37678;DHT22;23517;50.390;8.616;2023-12-20T15:44:03;6.10;99.90
37678;DHT22;23517;50.390;8.616;2023-12-20T15:46:30;6.20;99.90
37678;DHT22;23517;50.390;8.616;2023-12-20T15:48:57;6.20;99.90
37678;DHT22;23517;50.390;8.616;2023-12-20T15:51:23;6.10;99.90
37678;DHT22;23517;50.390;8.616;2023-12-20T15:53:51;6.10;1.00
37678;DHT22;23517;50.390;8.616;2023-12-20T15:56:18;6.10;1.00
37678;DHT22;23517;50.390;8.616;2023-12-20T15:58:45;6.10;1.00